createdAt,value
2019-03-17T00:00:29.774Z,5.60
2019-03-17T00:03:00.767Z,9.43
2019-03-17T00:05:31.724Z,6.63
2019-03-17T00:08:02.755Z,6.20
2019-03-17T00:10:33.716Z,8.57
2019-03-17T00:13:04.745Z,8.80
2019-03-17T00:15:35.752Z,8.80
2019-03-17T00:18:06.683Z,8.60
2019-03-17T00:20:37.715Z,8.07
2019-03-17T00:23:08.664Z,8.77
2019-03-17T00:25:39.532Z,7.47
2019-03-17T00:28:10.640Z,6.03
2019-03-17T00:30:41.800Z,5.83
2019-03-17T00:33:12.749Z,8.07
2019-03-17T00:35:43.864Z,5.07
2019-03-17T00:38:14.800Z,5.43
2019-03-17T00:40:47.428Z,6.70
2019-03-17T00:43:25.988Z,5.53
2019-03-17T00:45:56.914Z,7.07
2019-03-17T00:48:27.916Z,5.13
2019-03-17T00:50:58.867Z,8.30
2019-03-17T00:53:29.824Z,8.40
2019-03-17T00:56:00.844Z,7.80
2019-03-17T00:58:31.851Z,5.20
2019-03-17T01:01:02.791Z,4.97
2019-03-17T01:03:33.971Z,4.90
2019-03-17T01:06:05.074Z,5.00
2019-03-17T01:08:36.022Z,7.27
2019-03-17T01:11:07.055Z,5.50
2019-03-17T01:13:37.958Z,5.03
2019-03-17T01:16:08.928Z,6.13
2019-03-17T01:18:39.830Z,4.70
2019-03-17T01:21:10.772Z,7.07
2019-03-17T01:23:41.696Z,4.53
2019-03-17T01:26:12.588Z,6.37
2019-03-17T01:28:43.429Z,4.80
2019-03-17T01:31:14.608Z,5.10
2019-03-17T01:33:45.523Z,5.63
2019-03-17T01:36:16.503Z,4.97
2019-03-17T01:38:47.526Z,4.97
2019-03-17T01:41:18.389Z,5.60
2019-03-17T01:43:49.279Z,5.10
2019-03-17T01:46:20.241Z,5.00
2019-03-17T01:48:51.340Z,6.27
2019-03-17T01:51:22.243Z,5.20
2019-03-17T01:53:53.270Z,7.23
2019-03-17T01:56:24.205Z,7.87
2019-03-17T01:58:55.303Z,6.90
2019-03-17T02:01:26.210Z,5.70
2019-03-17T02:03:57.156Z,7.33
2019-03-17T02:06:28.121Z,6.43
2019-03-17T02:08:59.048Z,5.70
2019-03-17T02:11:30.021Z,9.63
2019-03-17T02:14:00.898Z,5.87
2019-03-17T02:16:31.786Z,7.00
2019-03-17T02:19:02.744Z,5.90
2019-03-17T02:21:33.737Z,7.43
2019-03-17T02:24:04.842Z,6.60
2019-03-17T02:26:35.743Z,7.37
2019-03-17T02:29:06.704Z,7.27
2019-03-17T02:31:37.611Z,7.90
2019-03-17T02:34:11.644Z,6.87
2019-03-17T02:36:41.065Z,4.90
2019-03-17T02:39:12.038Z,6.77
2019-03-17T02:41:42.949Z,4.93
2019-03-17T02:44:13.890Z,5.67
2019-03-17T02:46:44.807Z,4.23
2019-03-17T02:49:15.900Z,4.80
2019-03-17T02:51:46.772Z,6.83
2019-03-17T02:54:17.688Z,6.50
2019-03-17T02:56:48.634Z,5.60
2019-03-17T02:59:19.938Z,5.27
2019-03-17T03:01:50.878Z,5.63
2019-03-17T03:04:21.842Z,4.70
2019-03-17T03:06:52.712Z,6.63
2019-03-17T03:09:23.634Z,4.10
2019-03-17T03:11:54.613Z,5.97
2019-03-17T03:14:25.552Z,4.23
2019-03-17T03:16:56.474Z,3.30
2019-03-17T03:19:27.429Z,3.37
2019-03-17T03:21:58.382Z,3.27
2019-03-17T03:24:29.375Z,2.80
2019-03-17T03:27:00.431Z,3.00
2019-03-17T03:29:31.428Z,2.60
2019-03-17T03:32:02.283Z,3.83
2019-03-17T03:34:33.167Z,4.33
2019-03-17T03:37:04.022Z,2.50
2019-03-17T03:39:34.890Z,2.50
2019-03-17T03:42:05.983Z,3.77
2019-03-17T03:44:36.980Z,2.70
2019-03-17T03:47:08.036Z,3.03
2019-03-17T03:49:39.065Z,1.73
2019-03-17T03:52:10.014Z,3.70
2019-03-17T03:54:40.909Z,2.13
2019-03-17T03:57:11.978Z,2.50
2019-03-17T03:59:42.916Z,3.23
2019-03-17T04:02:13.889Z,2.13
2019-03-17T04:04:44.901Z,3.60
2019-03-17T04:07:15.815Z,1.83
2019-03-17T04:09:46.720Z,3.53
2019-03-17T04:12:17.797Z,2.10
2019-03-17T04:14:48.655Z,2.13
2019-03-17T04:17:19.595Z,1.60
2019-03-17T04:19:50.641Z,2.90
2019-03-17T04:22:21.636Z,3.67
2019-03-17T04:24:52.554Z,3.10
2019-03-17T04:27:23.420Z,2.30
2019-03-17T04:29:54.537Z,2.43
2019-03-17T04:32:25.395Z,3.00
2019-03-17T04:34:56.395Z,2.33
2019-03-17T04:37:27.330Z,1.67
2019-03-17T04:39:58.212Z,2.50
2019-03-17T04:42:29.080Z,4.03
2019-03-17T04:44:59.958Z,2.50
2019-03-17T04:47:30.922Z,2.50
2019-03-17T04:50:01.835Z,2.20
2019-03-17T04:52:32.791Z,2.47
2019-03-17T04:55:04.308Z,3.63
2019-03-17T04:57:35.325Z,3.03
2019-03-17T05:00:14.004Z,1.50
2019-03-17T05:02:45.097Z,2.43
2019-03-17T05:05:16.146Z,1.60
2019-03-17T05:07:47.186Z,2.33
2019-03-17T05:10:18.047Z,2.13
2019-03-17T05:12:49.054Z,2.43
2019-03-17T05:15:19.963Z,2.33
2019-03-17T05:17:50.900Z,3.00
2019-03-17T05:20:21.974Z,1.70
2019-03-17T05:22:53.316Z,2.70
2019-03-17T05:25:24.360Z,3.10
2019-03-17T05:27:55.362Z,3.43
2019-03-17T05:30:26.267Z,2.10
2019-03-17T05:32:57.173Z,1.87
2019-03-17T05:35:28.055Z,2.03
2019-03-17T05:37:59.020Z,3.87
2019-03-17T05:40:29.901Z,2.20
2019-03-17T05:43:00.768Z,3.23
2019-03-17T05:45:31.671Z,2.33
2019-03-17T05:48:02.718Z,2.03
2019-03-17T05:50:34.649Z,1.97
2019-03-17T05:53:07.345Z,1.93
2019-03-17T05:55:38.303Z,3.33
2019-03-17T05:58:09.168Z,2.13
2019-03-17T06:00:40.032Z,1.70
2019-03-17T06:03:11.061Z,3.70
2019-03-17T06:05:42.167Z,2.47
2019-03-17T06:08:13.101Z,2.00
2019-03-17T06:10:44.164Z,1.90
2019-03-17T06:13:15.101Z,4.13
2019-03-17T06:15:46.307Z,2.37
2019-03-17T06:18:17.240Z,2.53
2019-03-17T06:20:48.192Z,2.67
2019-03-17T06:23:19.091Z,2.30
2019-03-17T06:25:50.076Z,2.10
2019-03-17T06:28:21.710Z,2.77
2019-03-17T06:30:52.762Z,2.70
2019-03-17T06:33:23.764Z,2.70
2019-03-17T06:35:54.731Z,2.90
2019-03-17T06:38:25.679Z,2.50
2019-03-17T06:40:56.669Z,1.60
2019-03-17T06:43:27.559Z,2.83
2019-03-17T06:45:58.595Z,3.47
2019-03-17T06:48:29.641Z,2.53
2019-03-17T06:51:00.624Z,1.93
2019-03-17T06:53:31.506Z,1.47
2019-03-17T06:56:02.883Z,1.83
2019-03-17T06:58:33.903Z,1.83
2019-03-17T07:01:04.911Z,2.73
2019-03-17T07:03:35.986Z,3.00
2019-03-17T07:06:07.165Z,2.90
2019-03-17T07:08:40.269Z,1.80
2019-03-17T07:11:11.632Z,2.47
2019-03-17T07:13:42.583Z,1.80
2019-03-17T07:16:13.664Z,2.37
2019-03-17T07:18:44.745Z,2.07
2019-03-17T07:21:15.814Z,1.70
2019-03-17T07:23:47.078Z,1.90
2019-03-17T07:26:19.676Z,1.40
2019-03-17T07:28:50.618Z,2.80
2019-03-17T07:31:21.783Z,2.70
2019-03-17T07:33:55.935Z,2.57
2019-03-17T07:36:29.586Z,6.53
2019-03-17T07:39:11.082Z,2.57
2019-03-17T07:41:33.033Z,2.10
2019-03-17T07:44:04.073Z,4.77
2019-03-17T07:46:41.784Z,2.93
2019-03-17T07:49:16.034Z,1.97
2019-03-17T07:51:47.920Z,2.40
2019-03-17T07:54:18.787Z,2.10
2019-03-17T07:56:52.322Z,4.17
2019-03-17T07:59:26.107Z,4.90
2019-03-17T08:01:57.007Z,2.63
2019-03-17T08:04:41.614Z,3.70
2019-03-17T08:07:02.286Z,1.97
2019-03-17T08:09:33.285Z,1.70
2019-03-17T08:12:04.842Z,2.17
2019-03-17T08:14:35.874Z,3.83
2019-03-17T08:17:08.420Z,2.77
2019-03-17T08:19:42.264Z,2.63
2019-03-17T08:22:13.297Z,2.13
2019-03-17T08:24:44.243Z,2.40
2019-03-17T08:27:15.342Z,2.90
2019-03-17T08:29:46.293Z,2.63
2019-03-17T08:32:20.449Z,2.63
2019-03-17T08:34:51.595Z,1.10
2019-03-17T08:37:22.537Z,2.77
2019-03-17T08:39:57.519Z,1.70
2019-03-17T08:42:28.547Z,1.30
2019-03-17T08:44:59.537Z,1.40
2019-03-17T08:47:30.574Z,2.60
2019-03-17T08:50:01.515Z,1.47
2019-03-17T08:52:34.285Z,1.13
2019-03-17T08:55:06.826Z,1.20
2019-03-17T08:57:38.372Z,1.00
2019-03-17T09:00:12.012Z,1.40
2019-03-17T09:03:00.470Z,3.20
2019-03-17T09:05:31.406Z,1.63
2019-03-17T09:08:34.295Z,0.70
2019-03-17T09:10:55.562Z,4.27
2019-03-17T09:13:26.657Z,1.07
2019-03-17T09:15:57.772Z,0.70
2019-03-17T09:18:28.656Z,1.07
2019-03-17T09:21:05.154Z,1.00
2019-03-17T09:23:34.105Z,1.47
2019-03-17T09:26:05.270Z,2.50
2019-03-17T09:28:36.353Z,0.80
2019-03-17T09:31:08.484Z,1.27
2019-03-17T09:33:40.074Z,1.07
2019-03-17T09:36:13.316Z,1.80
2019-03-17T09:38:47.409Z,1.20
2019-03-17T09:41:17.560Z,2.57
2019-03-17T09:43:48.473Z,1.03
2019-03-17T09:46:19.426Z,1.93
2019-03-17T09:48:50.602Z,1.43
2019-03-17T09:51:21.622Z,1.23
2019-03-17T09:53:52.591Z,1.50
2019-03-17T09:56:23.543Z,1.93
2019-03-17T09:58:54.591Z,2.03
2019-03-17T10:01:25.555Z,0.97
2019-03-17T10:03:56.507Z,1.33
2019-03-17T10:06:27.562Z,1.20
2019-03-17T10:09:00.264Z,1.40
2019-03-17T10:11:31.562Z,2.10
2019-03-17T10:14:02.605Z,1.00
2019-03-17T10:16:33.681Z,3.47
2019-03-17T10:19:04.622Z,2.17
2019-03-17T10:21:37.306Z,3.37
2019-03-17T10:24:08.177Z,1.77
2019-03-17T10:26:39.128Z,1.40
2019-03-17T10:29:10.089Z,1.30
2019-03-17T10:31:41.156Z,0.77
2019-03-17T10:34:12.128Z,2.40
2019-03-17T10:36:43.017Z,2.67
2019-03-17T10:39:13.914Z,1.00
2019-03-17T10:41:44.848Z,0.97
2019-03-17T10:44:15.831Z,1.00
2019-03-17T10:46:47.247Z,1.43
2019-03-17T10:49:18.232Z,2.10
2019-03-17T10:51:49.319Z,1.57
2019-03-17T10:54:20.318Z,2.07
2019-03-17T10:56:51.255Z,1.23
2019-03-17T10:59:22.283Z,1.30
2019-03-17T11:01:53.237Z,1.27
2019-03-17T11:04:24.288Z,2.57
2019-03-17T11:06:55.181Z,1.90
2019-03-17T11:09:26.158Z,2.27
2019-03-17T11:11:57.250Z,1.47
2019-03-17T11:14:28.199Z,1.90
2019-03-17T11:16:59.269Z,1.60
2019-03-17T11:19:30.371Z,1.03
2019-03-17T11:22:01.384Z,0.93
2019-03-17T11:24:32.229Z,1.70
2019-03-17T11:27:03.122Z,2.23
2019-03-17T11:29:34.151Z,1.50
2019-03-17T11:32:06.683Z,1.47
2019-03-17T11:34:37.736Z,1.43
2019-03-17T11:37:08.642Z,1.73
2019-03-17T11:39:39.661Z,2.50
2019-03-17T11:42:10.762Z,1.70
2019-03-17T11:44:41.788Z,1.17
2019-03-17T11:47:12.813Z,1.30
2019-03-17T11:49:46.070Z,1.00
2019-03-17T11:52:16.473Z,2.73
2019-03-17T11:54:47.503Z,2.77
2019-03-17T11:57:18.625Z,2.37
2019-03-17T11:59:49.596Z,1.50
2019-03-17T12:02:26.427Z,2.73
2019-03-17T12:04:53.339Z,1.27
2019-03-17T12:07:24.351Z,1.97
2019-03-17T12:09:55.311Z,2.33
2019-03-17T12:12:26.177Z,1.17
2019-03-17T12:14:57.154Z,1.20
2019-03-17T12:17:28.066Z,1.70
2019-03-17T12:19:58.924Z,4.20
2019-03-17T12:22:32.799Z,3.17
2019-03-17T12:25:03.881Z,3.00
2019-03-17T12:27:34.840Z,2.67
2019-03-17T12:30:11.407Z,1.60
2019-03-17T12:32:42.500Z,3.63
2019-03-17T12:35:13.733Z,2.87
2019-03-17T12:37:44.843Z,3.70
2019-03-17T12:40:15.830Z,2.30
2019-03-17T12:42:46.811Z,2.10
2019-03-17T12:45:18.055Z,2.00
2019-03-17T12:47:48.931Z,1.50
2019-03-17T12:50:21.160Z,3.77
2019-03-17T12:52:52.068Z,1.63
2019-03-17T12:55:23.012Z,2.43
2019-03-17T12:57:53.959Z,2.77
2019-03-17T13:00:26.298Z,2.93
2019-03-17T13:02:57.152Z,6.53
2019-03-17T13:05:28.213Z,4.53
2019-03-17T13:07:59.177Z,5.23
2019-03-17T13:10:30.144Z,4.13
2019-03-17T13:13:01.142Z,3.50
2019-03-17T13:15:32.089Z,7.63
2019-03-17T13:18:03.069Z,5.33
2019-03-17T13:20:34.100Z,6.40
2019-03-17T13:23:05.045Z,6.30
2019-03-17T13:25:36.140Z,4.60
2019-03-17T13:28:07.152Z,7.77
2019-03-17T13:30:38.162Z,7.30
2019-03-17T13:33:09.138Z,6.53
2019-03-17T13:35:40.100Z,8.53
2019-03-17T13:38:11.055Z,6.97
2019-03-17T13:40:42.075Z,5.73
2019-03-17T13:43:13.092Z,6.17
2019-03-17T13:45:44.130Z,7.70
2019-03-17T13:48:15.353Z,4.00
2019-03-17T13:50:46.300Z,5.67
2019-03-17T13:53:17.280Z,7.80
2019-03-17T13:55:48.254Z,6.77
2019-03-17T13:58:19.172Z,7.63
2019-03-17T14:00:50.137Z,9.00
2019-03-17T14:03:21.062Z,8.13
2019-03-17T14:05:52.143Z,7.63
2019-03-17T14:08:23.035Z,8.70
2019-03-17T14:10:54.004Z,5.87
2019-03-17T14:13:25.329Z,6.43
2019-03-17T14:15:56.365Z,10.80
2019-03-17T14:18:27.298Z,6.40
2019-03-17T14:20:58.337Z,9.67
2019-03-17T14:23:29.386Z,5.87
2019-03-17T14:26:00.460Z,9.70
2019-03-17T14:28:31.437Z,8.47
2019-03-17T14:31:02.544Z,5.83
2019-03-17T14:33:33.635Z,8.53
2019-03-17T14:36:04.726Z,6.00
2019-03-17T14:38:35.764Z,7.60
2019-03-17T14:41:06.947Z,7.90
2019-03-17T14:43:38.001Z,8.83
2019-03-17T14:46:08.958Z,4.43
2019-03-17T14:48:39.932Z,6.83
2019-03-17T14:51:10.949Z,4.27
2019-03-17T14:53:41.867Z,1.93
2019-03-17T14:56:12.891Z,1.47
2019-03-17T14:58:43.853Z,2.27
2019-03-17T15:01:14.819Z,1.90
2019-03-17T15:03:45.722Z,1.57
2019-03-17T15:06:16.640Z,1.17
2019-03-17T15:08:47.549Z,0.97
2019-03-17T15:11:18.427Z,1.80
2019-03-17T15:13:49.499Z,1.23
2019-03-17T15:16:20.651Z,1.27
2019-03-17T15:18:51.711Z,0.90
2019-03-17T15:21:22.744Z,0.63
2019-03-17T15:23:53.769Z,0.80
2019-03-17T15:26:24.731Z,0.67
2019-03-17T15:28:55.767Z,1.70
2019-03-17T15:31:26.683Z,0.30
2019-03-17T15:33:57.639Z,0.50
2019-03-17T15:36:28.546Z,0.57
2019-03-17T15:38:59.517Z,0.50
2019-03-17T15:41:30.669Z,1.07
2019-03-17T15:44:01.710Z,0.90
2019-03-17T15:46:32.638Z,1.40
2019-03-17T15:49:03.591Z,0.67
2019-03-17T15:51:34.629Z,0.50
2019-03-17T15:54:05.630Z,0.43
2019-03-17T15:56:36.709Z,0.83
2019-03-17T15:59:07.726Z,1.10
2019-03-17T16:01:38.883Z,0.67
2019-03-17T16:04:09.835Z,0.73
2019-03-17T16:06:41.368Z,0.47
2019-03-17T16:09:12.405Z,0.57
2019-03-17T16:11:43.533Z,1.30
2019-03-17T16:14:14.587Z,0.40
2019-03-17T16:16:45.751Z,1.20
2019-03-17T16:19:18.006Z,0.93
2019-03-17T16:21:48.861Z,0.80
2019-03-17T16:24:19.899Z,1.03
2019-03-17T16:26:50.915Z,0.73
2019-03-17T16:29:21.779Z,0.67
2019-03-17T16:31:52.685Z,1.60
2019-03-17T16:34:23.585Z,0.60
2019-03-17T16:36:54.629Z,1.20
2019-03-17T16:39:25.621Z,0.57
2019-03-17T16:41:56.640Z,0.60
2019-03-17T16:44:27.717Z,0.50
2019-03-17T16:46:58.761Z,0.77
2019-03-17T16:49:29.903Z,0.63
2019-03-17T16:52:00.818Z,0.40
2019-03-17T16:54:31.687Z,1.10
2019-03-17T16:57:02.583Z,0.67
2019-03-17T16:59:33.573Z,1.97
2019-03-17T17:02:04.759Z,0.30
2019-03-17T17:04:35.947Z,1.87
2019-03-17T17:07:07.084Z,0.60
2019-03-17T17:09:38.307Z,0.90
2019-03-17T17:12:09.692Z,1.43
2019-03-17T17:14:40.586Z,2.43
2019-03-17T17:17:11.636Z,0.70
2019-03-17T17:19:42.806Z,1.20
2019-03-17T17:22:14.219Z,1.87
2019-03-17T17:24:46.858Z,1.00
2019-03-17T17:27:20.486Z,1.07
2019-03-17T17:29:54.060Z,2.53
2019-03-17T17:32:29.249Z,1.10
2019-03-17T17:34:59.446Z,1.97
2019-03-17T17:37:30.984Z,1.03
2019-03-17T17:40:02.022Z,1.30
2019-03-17T17:42:32.971Z,1.43
2019-03-17T17:45:05.239Z,1.00
2019-03-17T17:47:36.252Z,1.00
2019-03-17T17:50:14.669Z,0.93
2019-03-17T17:52:46.131Z,1.10
2019-03-17T17:55:17.231Z,1.87
2019-03-17T17:57:52.752Z,1.63
2019-03-17T18:00:30.901Z,1.10
2019-03-17T18:03:04.806Z,1.50
2019-03-17T18:05:35.774Z,1.83
2019-03-17T18:08:06.772Z,2.07
2019-03-17T18:10:39.681Z,2.23
2019-03-17T18:13:10.688Z,1.70
2019-03-17T18:15:41.686Z,1.13
2019-03-17T18:18:12.733Z,2.00
2019-03-17T18:20:44.096Z,1.50
2019-03-17T18:23:18.101Z,2.60
2019-03-17T18:25:47.770Z,1.27
2019-03-17T18:28:19.614Z,1.60
2019-03-17T18:30:50.723Z,1.93
2019-03-17T18:33:21.753Z,2.30
2019-03-17T18:35:53.270Z,3.57
2019-03-17T18:38:24.245Z,2.20
2019-03-17T18:40:55.584Z,1.83
2019-03-17T18:43:37.202Z,1.37
2019-03-17T18:46:08.272Z,1.23
2019-03-17T18:48:39.246Z,3.57
2019-03-17T18:51:13.514Z,1.93
2019-03-17T18:53:47.500Z,4.27
2019-03-17T18:56:21.380Z,1.03
2019-03-17T18:58:52.338Z,1.30
2019-03-17T19:01:23.384Z,1.77
2019-03-17T19:03:54.599Z,1.53
2019-03-17T19:06:25.472Z,1.27
2019-03-17T19:08:56.463Z,2.37
2019-03-17T19:11:27.580Z,2.93
2019-03-17T19:13:58.573Z,2.03
2019-03-17T19:16:29.446Z,1.83
2019-03-17T19:19:00.575Z,3.10
2019-03-17T19:21:31.730Z,3.17
2019-03-17T19:24:02.714Z,1.53
2019-03-17T19:26:33.690Z,2.13
2019-03-17T19:29:04.735Z,3.30
2019-03-17T19:31:36.404Z,0.90
2019-03-17T19:34:07.599Z,2.17
2019-03-17T19:36:38.574Z,1.97
2019-03-17T19:39:09.638Z,1.93
2019-03-17T19:41:40.659Z,2.17
2019-03-17T19:44:11.609Z,2.87
2019-03-17T19:46:44.153Z,1.20
2019-03-17T19:49:15.027Z,2.67
2019-03-17T19:51:45.903Z,1.53
2019-03-17T19:54:17.245Z,2.93
2019-03-17T19:56:51.331Z,1.50
2019-03-17T19:59:24.723Z,4.00
2019-03-17T20:01:57.253Z,2.43
2019-03-17T20:04:32.505Z,1.93
2019-03-17T20:07:01.009Z,2.40
2019-03-17T20:09:32.032Z,1.23
2019-03-17T20:12:04.171Z,3.17
2019-03-17T20:14:35.562Z,2.53
2019-03-17T20:17:06.602Z,2.37
2019-03-17T20:19:37.617Z,4.03
2019-03-17T20:22:08.578Z,3.43
2019-03-17T20:24:39.500Z,1.20
2019-03-17T20:27:10.461Z,1.17
2019-03-17T20:29:41.573Z,0.70
2019-03-17T20:32:12.557Z,1.00
2019-03-17T20:34:43.501Z,1.50
2019-03-17T20:37:14.665Z,3.50
2019-03-17T20:39:45.671Z,1.30
2019-03-17T20:42:16.551Z,1.53
2019-03-17T20:44:47.654Z,1.47
2019-03-17T20:47:18.560Z,3.43
2019-03-17T20:49:51.258Z,1.33
2019-03-17T20:52:22.161Z,1.63
2019-03-17T20:54:53.118Z,1.83
2019-03-17T20:57:23.996Z,1.00
2019-03-17T20:59:55.130Z,1.03
2019-03-17T21:02:26.101Z,2.10
2019-03-17T21:04:56.987Z,1.97
2019-03-17T21:07:48.121Z,2.10
2019-03-17T21:10:31.872Z,2.20
2019-03-17T21:13:02.765Z,1.97
2019-03-17T21:15:33.710Z,1.53
2019-03-17T21:18:04.653Z,2.07
2019-03-17T21:20:35.696Z,1.17
2019-03-17T21:23:06.640Z,2.20
2019-03-17T21:25:37.592Z,2.40
2019-03-17T21:28:08.488Z,3.13
2019-03-17T21:30:39.412Z,2.83
2019-03-17T21:33:10.309Z,1.53
2019-03-17T21:35:41.190Z,2.47
2019-03-17T21:38:12.066Z,3.17
2019-03-17T21:41:01.392Z,2.43
2019-03-17T21:43:15.795Z,2.87
2019-03-17T21:45:46.704Z,2.10
2019-03-17T21:48:17.546Z,2.20
2019-03-17T21:50:48.499Z,2.47
2019-03-17T21:53:19.560Z,2.57
2019-03-17T21:55:50.592Z,1.60
2019-03-17T21:58:21.528Z,4.47
2019-03-17T22:00:52.474Z,1.70
2019-03-17T22:03:23.609Z,1.67
2019-03-17T22:05:54.617Z,1.73
2019-03-17T22:08:25.684Z,2.83
2019-03-17T22:10:56.616Z,2.50
2019-03-17T22:13:27.542Z,2.97
2019-03-17T22:15:58.554Z,1.40
2019-03-17T22:18:30.008Z,1.57
2019-03-17T22:21:01.166Z,3.40
2019-03-17T22:23:32.355Z,2.80
2019-03-17T22:26:03.296Z,1.20
2019-03-17T22:28:34.223Z,4.20
2019-03-17T22:31:05.170Z,2.90
2019-03-17T22:33:36.072Z,3.57
2019-03-17T22:36:06.927Z,3.30
2019-03-17T22:38:37.827Z,1.37
2019-03-17T22:41:08.693Z,2.07
2019-03-17T22:43:39.644Z,2.90
2019-03-17T22:46:10.585Z,1.97
2019-03-17T22:48:41.636Z,1.50
2019-03-17T22:51:12.586Z,1.77
2019-03-17T22:53:43.438Z,3.00
2019-03-17T22:56:14.394Z,3.77
2019-03-17T22:58:45.392Z,4.57
2019-03-17T23:01:16.630Z,4.73
2019-03-17T23:03:47.616Z,1.23
2019-03-17T23:06:18.543Z,3.90
2019-03-17T23:08:49.559Z,2.00
2019-03-17T23:11:20.500Z,2.37
2019-03-17T23:13:51.392Z,1.67
2019-03-17T23:16:22.339Z,1.47
2019-03-17T23:18:53.326Z,2.57
2019-03-17T23:21:24.292Z,2.70
2019-03-17T23:23:55.287Z,1.77
2019-03-17T23:26:26.153Z,1.67
2019-03-17T23:28:57.058Z,1.30
2019-03-17T23:31:28.099Z,3.10
2019-03-17T23:33:58.949Z,2.53
2019-03-17T23:36:29.892Z,1.60
2019-03-17T23:39:00.859Z,1.33
2019-03-17T23:41:31.847Z,1.30
2019-03-17T23:44:02.732Z,1.10
2019-03-17T23:46:33.705Z,2.30
2019-03-17T23:49:04.725Z,1.10
2019-03-17T23:51:35.818Z,2.63
2019-03-17T23:54:06.849Z,3.27
2019-03-17T23:56:39.277Z,3.17
2019-03-17T23:59:10.225Z,2.67
